Time;durP1;ratioP1;P1;durP2;ratioP2;P2;SDS_P1;SDS_P2;PMS_P1;PMS_P2;Temp;Humidity;BMP_temperature;BMP_pressure;BME280_temperature;BME280_humidity;BME280_pressure;Samples;Min_cycle;Max_cycle;Signal;HPM_P1;HPM_P2
2023/12/12 00:01:47;;;;;;;11.73;1.90;;;7.00;99.90;;;;;;5095521;28;20419;-73
2023/12/12 00:04:13;;;;;;;11.67;1.77;;;7.00;99.90;;;;;;5092309;28;20406;-73
2023/12/12 00:06:39;;;;;;;8.60;1.70;;;7.00;99.90;;;;;;5091471;28;20425;-73
2023/12/12 00:09:04;;;;;;;11.00;1.87;;;7.00;99.90;;;;;;5090857;28;20455;-72
2023/12/12 00:11:30;;;;;;;9.23;1.55;;;7.00;99.90;;;;;;5094742;28;20404;-72
2023/12/12 00:13:56;;;;;;;10.95;1.88;;;7.00;99.90;;;;;;5092814;28;20771;-73
2023/12/12 00:16:21;;;;;;;9.73;1.80;;;6.90;99.90;;;;;;5091198;28;20408;-73
2023/12/12 00:18:47;;;;;;;8.65;1.80;;;6.90;99.90;;;;;;5091964;28;20438;-72
2023/12/12 00:21:12;;;;;;;12.20;1.90;;;6.90;99.90;;;;;;5093819;28;20401;-73
2023/12/12 00:23:38;;;;;;;7.70;1.70;;;6.90;99.90;;;;;;5089016;28;20413;-73
2023/12/12 00:26:07;;;;;;;9.63;1.80;;;6.90;99.90;;;;;;5093286;28;20840;-73
2023/12/12 00:28:35;;;;;;;11.68;1.75;;;6.90;99.90;;;;;;5091495;28;20406;-73
2023/12/12 00:31:01;;;;;;;12.57;2.20;;;6.90;99.90;;;;;;5093035;28;20400;-73
2023/12/12 00:33:28;;;;;;;8.43;1.60;;;6.80;99.90;;;;;;5089139;28;20806;-73
2023/12/12 00:35:53;;;;;;;10.88;1.90;;;6.90;99.90;;;;;;5093209;28;20416;-73
2023/12/12 00:38:19;;;;;;;8.00;1.50;;;6.80;99.90;;;;;;5091505;28;20421;-73
2023/12/12 00:40:52;;;;;;;9.30;1.67;;;6.90;99.90;;;;;;5092549;28;20399;-73
2023/12/12 00:43:17;;;;;;;9.05;1.83;;;6.80;99.90;;;;;;5088943;28;20398;-73
2023/12/12 00:45:43;;;;;;;10.65;2.00;;;6.90;99.90;;;;;;5094699;28;20429;-73
2023/12/12 00:48:09;;;;;;;8.97;1.70;;;6.80;99.90;;;;;;5093476;28;20409;-73
2023/12/12 00:50:34;;;;;;;11.60;1.73;;;6.90;99.90;;;;;;5091075;28;20407;-73
2023/12/12 00:53:00;;;;;;;7.53;1.60;;;6.80;99.90;;;;;;5089061;28;20493;-73
2023/12/12 00:55:25;;;;;;;8.60;1.77;;;6.80;99.90;;;;;;5094127;28;20743;-73
2023/12/12 00:57:51;;;;;;;9.43;1.70;;;6.80;99.90;;;;;;5090893;28;20398;-73
2023/12/12 01:00:17;;;;;;;9.17;1.77;;;6.70;99.90;;;;;;5094812;28;20392;-73
2023/12/12 01:02:42;;;;;;;8.48;1.83;;;6.70;99.90;;;;;;5091182;28;20756;-73
2023/12/12 01:05:08;;;;;;;10.13;1.85;;;6.70;99.90;;;;;;5091588;28;20814;-73
2023/12/12 01:07:34;;;;;;;8.03;1.60;;;6.70;99.90;;;;;;5092221;28;20405;-73
2023/12/12 01:09:59;;;;;;;8.45;1.40;;;6.70;99.90;;;;;;5075160;28;20814;-73
2023/12/12 01:12:25;;;;;;;10.38;1.60;;;6.70;99.90;;;;;;5091922;28;20965;-73
2023/12/12 01:14:50;;;;;;;8.13;1.50;;;6.70;99.90;;;;;;5075291;28;20479;-73
2023/12/12 01:17:16;;;;;;;7.28;1.42;;;6.70;99.90;;;;;;5089729;28;20458;-73
2023/12/12 01:19:42;;;;;;;9.03;1.50;;;6.60;99.90;;;;;;5091190;28;20436;-73
2023/12/12 01:22:07;;;;;;;8.65;1.48;;;6.60;99.90;;;;;;5091102;28;20904;-73
2023/12/12 01:24:34;;;;;;;7.25;1.38;;;6.70;99.90;;;;;;5089605;28;20408;-73
2023/12/12 01:27:00;;;;;;;8.90;1.33;;;6.70;99.90;;;;;;5072429;28;20434;-73
2023/12/12 01:29:26;;;;;;;8.37;1.23;;;6.60;99.90;;;;;;5087997;28;20756;-73
2023/12/12 01:31:51;;;;;;;9.32;1.67;;;6.60;99.90;;;;;;5089519;28;20425;-73
2023/12/12 01:34:17;;;;;;;9.20;1.53;;;6.50;99.90;;;;;;5091668;28;20449;-73
2023/12/12 01:36:42;;;;;;;7.70;1.63;;;6.50;99.90;;;;;;5089019;28;20418;-72
2023/12/12 01:39:08;;;;;;;7.50;1.60;;;6.40;99.90;;;;;;5089164;28;20772;-73
2023/12/12 01:41:34;;;;;;;12.50;1.63;;;6.30;99.90;;;;;;5089349;28;20462;-73
2023/12/12 01:43:59;;;;;;;8.82;1.45;;;6.30;99.90;;;;;;5091748;28;20468;-73
2023/12/12 01:46:25;;;;;;;6.22;1.38;;;6.30;99.90;;;;;;5090714;28;20468;-73
2023/12/12 01:48:52;;;;;;;11.47;1.90;;;6.20;99.90;;;;;;5090533;28;20398;-73
2023/12/12 01:51:18;;;;;;;9.25;1.95;;;6.20;99.90;;;;;;5089820;28;20485;-73
2023/12/12 01:53:46;;;;;;;7.18;1.60;;;6.20;99.90;;;;;;5093946;28;20526;-73
2023/12/12 01:56:14;;;;;;;10.00;1.88;;;6.20;99.90;;;;;;5091694;28;20485;-73
2023/12/12 01:58:42;;;;;;;6.53;1.63;;;6.10;99.90;;;;;;5076363;28;20404;-73
2023/12/12 02:01:09;;;;;;;9.07;1.33;;;6.10;99.90;;;;;;5090921;28;20435;-73
2023/12/12 02:03:35;;;;;;;7.38;1.45;;;6.10;99.90;;;;;;5092459;28;20771;-73
2023/12/12 02:06:02;;;;;;;7.60;1.80;;;6.10;99.90;;;;;;5090828;28;20784;-73
2023/12/12 02:08:28;;;;;;;6.65;1.20;;;6.10;99.90;;;;;;5090332;28;20421;-72
2023/12/12 02:10:54;;;;;;;6.97;1.40;;;6.10;99.90;;;;;;5090602;28;20406;-73
2023/12/12 02:13:20;;;;;;;9.23;1.75;;;6.00;99.90;;;;;;5090283;28;20760;-73
2023/12/12 02:15:47;;;;;;;6.70;1.50;;;6.00;99.90;;;;;;5072178;28;20513;-73
2023/12/12 02:18:14;;;;;;;7.32;1.73;;;6.00;99.90;;;;;;5089663;28;21163;-73
2023/12/12 02:20:40;;;;;;;8.18;1.40;;;6.00;99.90;;;;;;5088815;28;20405;-73
2023/12/12 02:23:06;;;;;;;12.18;1.75;;;6.00;99.90;;;;;;5090180;28;20807;-73
2023/12/12 02:25:32;;;;;;;8.57;1.83;;;5.90;99.90;;;;;;5089826;28;20491;-73
2023/12/12 02:28:00;;;;;;;7.60;1.90;;;5.90;99.90;;;;;;5091656;28;20425;-73
2023/12/12 02:30:25;;;;;;;7.82;1.70;;;5.80;99.90;;;;;;5088841;28;20413;-73
2023/12/12 02:32:51;;;;;;;8.10;1.90;;;5.80;99.90;;;;;;5090502;28;20986;-73
2023/12/12 02:35:16;;;;;;;8.67;2.10;;;5.70;99.90;;;;;;5089633;28;20893;-73
2023/12/12 02:37:42;;;;;;;6.72;1.90;;;5.70;99.90;;;;;;5086978;28;20718;-73
2023/12/12 02:40:08;;;;;;;6.32;1.88;;;5.70;99.90;;;;;;5071898;28;20402;-73
2023/12/12 02:42:34;;;;;;;6.97;2.00;;;5.60;99.90;;;;;;5088239;28;20441;-73
2023/12/12 02:45:00;;;;;;;7.43;1.80;;;5.50;99.90;;;;;;5088395;28;20398;-73
2023/12/12 02:47:25;;;;;;;6.77;2.27;;;5.40;99.90;;;;;;5092548;28;20481;-73
2023/12/12 02:49:51;;;;;;;7.05;2.30;;;5.40;99.90;;;;;;5090266;28;20447;-73
2023/12/12 02:52:17;;;;;;;8.68;2.25;;;5.30;99.90;;;;;;5088481;28;20393;-73
2023/12/12 02:54:42;;;;;;;8.50;2.60;;;5.30;99.90;;;;;;5089629;28;20830;-73
2023/12/12 02:57:08;;;;;;;9.18;2.45;;;5.20;99.90;;;;;;5087989;28;20410;-73
2023/12/12 02:59:34;;;;;;;9.20;2.33;;;5.20;99.90;;;;;;5088224;28;20398;-73
2023/12/12 03:01:59;;;;;;;6.27;2.10;;;5.20;99.90;;;;;;5082802;28;20420;-73
2023/12/12 03:04:25;;;;;;;11.02;2.45;;;5.20;99.90;;;;;;5086303;28;20398;-73
2023/12/12 03:06:50;;;;;;;6.90;2.37;;;5.20;99.90;;;;;;5076469;28;20436;-73
2023/12/12 03:09:16;;;;;;;8.15;2.30;;;5.20;99.90;;;;;;5077605;28;20495;-73
2023/12/12 03:11:42;;;;;;;7.03;2.35;;;5.30;99.90;;;;;;5092740;28;20402;-73
2023/12/12 03:14:08;;;;;;;9.50;2.90;;;5.20;99.90;;;;;;5095093;28;20402;-73
2023/12/12 03:16:34;;;;;;;8.13;2.20;;;5.30;99.90;;;;;;5101855;28;20404;-73
2023/12/12 03:18:59;;;;;;;7.47;2.57;;;5.30;99.90;;;;;;5096787;28;20493;-73
2023/12/12 03:21:25;;;;;;;8.77;2.22;;;5.30;99.90;;;;;;5093899;28;20564;-73
2023/12/12 03:23:51;;;;;;;6.82;2.10;;;5.40;99.90;;;;;;5102317;28;20831;-73
2023/12/12 03:26:16;;;;;;;9.87;2.47;;;5.40;99.90;;;;;;5098182;28;20436;-73
2023/12/12 03:28:42;;;;;;;7.10;2.05;;;5.40;99.90;;;;;;5102617;28;20400;-73
2023/12/12 03:31:08;;;;;;;9.63;2.30;;;5.40;99.90;;;;;;5098232;28;20409;-73
2023/12/12 03:33:34;;;;;;;7.00;2.30;;;5.40;99.90;;;;;;5085078;28;20439;-73
2023/12/12 03:36:00;;;;;;;7.50;2.40;;;5.50;99.90;;;;;;5098190;28;20741;-73
2023/12/12 03:38:25;;;;;;;6.27;2.10;;;5.50;99.90;;;;;;5088476;28;20467;-73
2023/12/12 03:40:51;;;;;;;8.57;2.10;;;5.50;99.90;;;;;;5102696;28;20491;-73
2023/12/12 03:43:16;;;;;;;8.87;2.03;;;5.50;99.90;;;;;;5080880;28;20398;-73
2023/12/12 03:45:43;;;;;;;9.18;2.20;;;5.50;99.90;;;;;;5102330;28;20428;-73
2023/12/12 03:48:08;;;;;;;9.55;2.17;;;5.50;99.90;;;;;;5097526;28;21055;-73
2023/12/12 03:50:34;;;;;;;11.55;2.80;;;5.50;99.90;;;;;;5102935;28;20471;-73
2023/12/12 03:53:00;;;;;;;9.27;2.25;;;5.50;99.90;;;;;;5097614;28;20401;-73
2023/12/12 03:55:25;;;;;;;8.80;2.10;;;5.50;99.90;;;;;;5101662;28;20408;-73
2023/12/12 03:57:51;;;;;;;6.18;1.80;;;5.50;99.90;;;;;;5095896;28;20417;-73
2023/12/12 04:00:17;;;;;;;5.23;1.80;;;5.50;99.90;;;;;;5100013;28;20411;-71
2023/12/12 04:02:42;;;;;;;6.90;2.23;;;5.50;99.90;;;;;;5095777;28;20406;-72
2023/12/12 04:05:11;;;;;;;7.90;1.80;;;5.50;99.90;;;;;;5101840;28;20484;-71
2023/12/12 04:07:37;;;;;;;8.98;2.25;;;5.50;99.90;;;;;;5096539;28;20405;-71
2023/12/12 04:10:06;;;;;;;9.63;2.55;;;5.50;99.90;;;;;;5098923;28;20426;-71
2023/12/12 04:12:35;;;;;;;8.03;2.40;;;5.50;99.90;;;;;;5086036;28;20409;-71
2023/12/12 04:15:01;;;;;;;7.07;2.20;;;5.50;99.90;;;;;;5094601;28;20457;-71
2023/12/12 04:17:28;;;;;;;8.03;1.90;;;5.50;99.90;;;;;;5098565;28;20413;-72
2023/12/12 04:19:53;;;;;;;8.85;2.15;;;5.60;99.90;;;;;;5092519;28;20486;-72
2023/12/12 04:22:19;;;;;;;6.60;2.00;;;5.60;99.90;;;;;;5097350;28;20502;-71
2023/12/12 04:24:45;;;;;;;6.63;2.23;;;5.60;99.90;;;;;;5101404;28;20438;-71
2023/12/12 04:27:10;;;;;;;6.30;1.90;;;5.60;99.90;;;;;;5096117;28;20513;-71
2023/12/12 04:29:36;;;;;;;7.43;1.90;;;5.60;99.90;;;;;;5101297;28;20854;-71
2023/12/12 04:32:02;;;;;;;7.70;1.83;;;5.60;99.90;;;;;;5098623;28;20457;-71
2023/12/12 04:34:33;;;;;;;9.37;2.07;;;5.60;99.90;;;;;;5096362;28;20434;-71
2023/12/12 04:37:01;;;;;;;8.03;2.27;;;5.60;99.90;;;;;;5095385;28;20447;-71
2023/12/12 04:39:27;;;;;;;9.82;2.10;;;5.60;99.90;;;;;;5103869;28;20797;-71
2023/12/12 04:41:53;;;;;;;8.60;1.98;;;5.60;99.90;;;;;;5099768;28;20463;-71
2023/12/12 04:44:18;;;;;;;6.10;2.00;;;5.60;99.90;;;;;;5103002;28;20405;-71
2023/12/12 04:46:44;;;;;;;6.28;2.20;;;5.60;99.90;;;;;;5099421;28;20438;-72
2023/12/12 04:49:10;;;;;;;8.47;2.30;;;5.60;99.90;;;;;;5102899;28;20408;-71
2023/12/12 04:51:35;;;;;;;8.70;2.40;;;5.60;99.90;;;;;;5100965;28;20464;-71
2023/12/12 04:54:01;;;;;;;7.47;2.33;;;5.60;99.90;;;;;;5104266;28;20392;-71
2023/12/12 04:56:26;;;;;;;7.73;2.57;;;5.60;99.90;;;;;;5100075;28;20402;-71
2023/12/12 04:58:52;;;;;;;7.15;2.10;;;5.50;99.90;;;;;;5102990;28;20848;-71
2023/12/12 05:01:18;;;;;;;5.67;2.17;;;5.50;99.90;;;;;;5100118;28;20410;-71
2023/12/12 05:03:44;;;;;;;7.95;2.42;;;5.50;99.90;;;;;;5102916;28;20432;-71
2023/12/12 05:06:10;;;;;;;6.88;1.98;;;5.50;99.90;;;;;;5099702;28;20438;-71
2023/12/12 05:08:36;;;;;;;10.02;2.58;;;5.40;99.90;;;;;;5084516;28;20457;-71
2023/12/12 05:11:01;;;;;;;9.23;2.28;;;5.40;99.90;;;;;;5098797;28;20406;-71
2023/12/12 05:13:27;;;;;;;8.02;2.50;;;5.40;99.90;;;;;;5094770;28;20400;-71
2023/12/12 05:15:53;;;;;;;6.93;2.23;;;5.50;99.90;;;;;;5096792;28;20451;-71
2023/12/12 05:18:19;;;;;;;7.10;2.30;;;5.40;99.90;;;;;;5101216;28;20434;-71
2023/12/12 05:20:45;;;;;;;8.43;2.53;;;5.50;99.90;;;;;;5094715;28;20994;-71
2023/12/12 05:23:11;;;;;;;6.53;2.37;;;5.50;99.90;;;;;;5094055;28;20466;-71
2023/12/12 05:25:37;;;;;;;7.85;2.10;;;5.50;99.90;;;;;;5095994;28;20430;-71
2023/12/12 05:28:03;;;;;;;7.18;2.38;;;5.50;99.90;;;;;;5100406;28;20408;-71
2023/12/12 05:30:28;;;;;;;6.55;2.30;;;5.40;99.90;;;;;;5095566;28;20753;-71
2023/12/12 05:32:54;;;;;;;6.33;2.20;;;5.50;99.90;;;;;;5099774;28;20400;-71
2023/12/12 05:35:20;;;;;;;7.97;2.10;;;5.50;99.90;;;;;;5094795;28;20402;-71
2023/12/12 05:37:45;;;;;;;6.75;2.22;;;5.40;99.90;;;;;;5094951;28;20396;-71
2023/12/12 05:40:14;;;;;;;9.33;2.23;;;5.50;99.90;;;;;;5094156;28;20417;-71
2023/12/12 05:42:43;;;;;;;10.80;2.40;;;5.50;99.90;;;;;;5099637;28;20753;-71
2023/12/12 05:45:09;;;;;;;7.57;2.30;;;5.40;99.90;;;;;;5095979;28;20406;-71
2023/12/12 05:47:35;;;;;;;9.93;2.40;;;5.40;99.90;;;;;;5099123;28;20838;-72
2023/12/12 05:50:01;;;;;;;6.55;2.35;;;5.50;99.90;;;;;;5095043;28;20495;-72
2023/12/12 05:52:27;;;;;;;6.78;2.10;;;5.40;99.90;;;;;;5100181;28;20396;-72
2023/12/12 05:54:53;;;;;;;9.45;2.25;;;5.50;99.90;;;;;;5088878;28;20975;-72
2023/12/12 05:57:19;;;;;;;8.00;2.50;;;5.50;99.90;;;;;;5093816;28;20488;-72
2023/12/12 05:59:46;;;;;;;7.90;2.78;;;5.40;99.90;;;;;;5086983;28;20410;-72
2023/12/12 06:02:11;;;;;;;8.02;2.45;;;5.50;99.90;;;;;;5086568;28;20401;-72
2023/12/12 06:04:38;;;;;;;7.75;2.55;;;5.50;99.90;;;;;;5093893;28;20397;-72
2023/12/12 06:07:04;;;;;;;7.80;2.50;;;5.40;99.90;;;;;;5098016;28;20439;-71
2023/12/12 06:09:30;;;;;;;6.65;2.40;;;5.50;99.90;;;;;;5093079;28;20764;-72
2023/12/12 06:11:55;;;;;;;7.47;2.60;;;5.40;99.90;;;;;;5092286;28;20489;-72
2023/12/12 06:14:21;;;;;;;6.80;2.60;;;5.40;99.90;;;;;;5101532;28;20396;-72
2023/12/12 06:16:46;;;;;;;10.00;2.77;;;5.40;99.90;;;;;;5102347;28;20416;-72
2023/12/12 06:19:12;;;;;;;7.72;2.42;;;5.40;99.90;;;;;;5088719;28;20491;-72
2023/12/12 06:21:37;;;;;;;8.77;2.50;;;5.40;99.90;;;;;;5097741;28;20404;-69
2023/12/12 06:24:04;;;;;;;9.20;3.00;;;5.40;99.90;;;;;;5100356;28;20511;-70
2023/12/12 06:26:31;;;;;;;7.40;2.78;;;5.30;99.90;;;;;;5092467;28;20514;-70
2023/12/12 06:28:56;;;;;;;8.20;2.75;;;5.30;99.90;;;;;;5087149;28;20423;-71
2023/12/12 06:31:26;;;;;;;10.52;3.30;;;5.30;99.90;;;;;;5085683;28;20935;-72
2023/12/12 06:33:52;;;;;;;9.50;2.80;;;5.30;99.90;;;;;;5097819;28;20538;-72
2023/12/12 06:36:17;;;;;;;7.88;3.10;;;5.30;99.90;;;;;;5101699;28;20401;-72
2023/12/12 06:38:43;;;;;;;9.38;3.15;;;5.30;99.90;;;;;;5097609;28;20400;-72
2023/12/12 06:41:09;;;;;;;10.60;3.50;;;5.30;99.90;;;;;;5098967;28;21043;-72
2023/12/12 06:43:35;;;;;;;11.00;3.30;;;5.30;99.90;;;;;;5094953;28;20922;-72
2023/12/12 06:46:00;;;;;;;8.93;3.17;;;5.30;99.90;;;;;;5098706;28;20481;-72
2023/12/12 06:48:26;;;;;;;11.73;3.10;;;5.30;99.90;;;;;;5095780;28;20402;-72
2023/12/12 06:50:52;;;;;;;10.55;3.10;;;5.30;99.90;;;;;;5099477;28;20817;-72
2023/12/12 06:53:18;;;;;;;11.15;3.60;;;5.30;99.90;;;;;;5095693;28;20502;-72
2023/12/12 06:55:44;;;;;;;11.95;3.78;;;5.30;99.90;;;;;;5101032;28;20397;-72
2023/12/12 06:58:11;;;;;;;8.70;3.75;;;5.20;99.90;;;;;;5094812;28;20547;-72
2023/12/12 07:00:39;;;;;;;10.55;3.90;;;5.20;99.90;;;;;;5075056;28;20490;-72
2023/12/12 07:03:05;;;;;;;10.40;3.38;;;5.10;99.90;;;;;;5087748;28;20404;-72
2023/12/12 07:05:31;;;;;;;10.45;3.55;;;5.10;99.90;;;;;;5098602;28;20396;-72
2023/12/12 07:07:57;;;;;;;11.90;4.10;;;5.10;99.90;;;;;;5095099;28;20520;-72
2023/12/12 07:10:22;;;;;;;10.87;4.57;;;5.00;99.90;;;;;;5092438;28;20394;-72
2023/12/12 07:12:48;;;;;;;14.88;4.32;;;5.00;99.90;;;;;;5069366;28;20402;-72
2023/12/12 07:15:14;;;;;;;12.70;4.87;;;5.00;99.90;;;;;;5095724;28;20611;-72
2023/12/12 07:17:40;;;;;;;14.52;5.95;;;4.90;99.90;;;;;;5100143;28;20465;-72
2023/12/12 07:20:06;;;;;;;15.48;5.80;;;4.90;99.90;;;;;;5100277;28;20902;-72
2023/12/12 07:22:32;;;;;;;14.43;6.78;;;4.90;99.90;;;;;;5101331;28;20396;-72
2023/12/12 07:24:58;;;;;;;16.10;6.65;;;4.80;99.90;;;;;;5101494;28;20454;-72
2023/12/12 07:27:23;;;;;;;15.07;6.67;;;4.80;99.90;;;;;;5099668;28;21120;-72
2023/12/12 07:29:49;;;;;;;14.75;6.68;;;4.80;99.90;;;;;;5100659;28;20401;-72
2023/12/12 07:32:15;;;;;;;16.20;6.83;;;4.70;99.90;;;;;;5100235;28;20400;-72
2023/12/12 07:34:41;;;;;;;19.70;7.50;;;4.70;99.90;;;;;;5090912;28;20414;-72
2023/12/12 07:37:06;;;;;;;21.97;8.10;;;4.60;99.90;;;;;;5100552;28;20401;-72
2023/12/12 07:39:32;;;;;;;23.40;9.00;;;4.60;99.90;;;;;;5090867;28;20413;-72
2023/12/12 07:41:58;;;;;;;22.83;9.75;;;4.60;99.90;;;;;;5100085;28;20404;-72
2023/12/12 07:44:24;;;;;;;30.83;11.63;;;4.60;99.90;;;;;;5099698;28;20808;-72
2023/12/12 07:46:49;;;;;;;28.23;11.60;;;4.60;99.90;;;;;;5094552;28;20532;-72
2023/12/12 07:49:15;;;;;;;39.13;12.85;;;4.60;99.90;;;;;;5094656;28;20758;-72
2023/12/12 07:51:40;;;;;;;41.43;13.33;;;4.60;99.90;;;;;;5094330;28;20402;-72
2023/12/12 07:54:06;;;;;;;48.70;14.37;;;4.60;99.90;;;;;;5094153;28;20442;-72
2023/12/12 07:56:32;;;;;;;58.08;15.07;;;4.70;99.90;;;;;;5097049;28;20973;-72
2023/12/12 07:58:58;;;;;;;60.15;15.73;;;4.70;99.90;;;;;;5100907;28;20416;-72
2023/12/12 08:01:24;;;;;;;66.40;16.13;;;4.70;99.90;;;;;;5097576;28;20485;-72
2023/12/12 08:03:50;;;;;;;63.30;15.03;;;4.70;99.90;;;;;;5099134;28;20453;-72
2023/12/12 08:06:16;;;;;;;62.38;15.57;;;4.70;99.90;;;;;;5101376;28;20431;-72
2023/12/12 08:08:42;;;;;;;44.40;15.45;;;4.70;99.90;;;;;;5103739;28;20750;-72
2023/12/12 08:11:15;;;;;;;60.27;16.77;;;4.70;99.90;;;;;;5098304;28;20456;-72
2023/12/12 08:13:40;;;;;;;42.75;15.55;;;4.70;99.90;;;;;;5089403;28;20438;-72
2023/12/12 08:16:07;;;;;;;50.92;17.45;;;4.70;99.90;;;;;;5103677;28;20431;-73
2023/12/12 08:18:32;;;;;;;51.30;17.35;;;4.80;99.90;;;;;;5103774;28;20407;-72
2023/12/12 08:20:58;;;;;;;66.40;18.77;;;4.80;99.90;;;;;;5103065;28;20408;-72
2023/12/12 08:23:23;;;;;;;64.60;19.35;;;4.80;99.90;;;;;;5102943;28;20743;-72
2023/12/12 08:25:49;;;;;;;65.70;19.80;;;4.90;99.90;;;;;;5101789;28;20454;-72
2023/12/12 08:28:15;;;;;;;63.37;19.10;;;4.90;99.90;;;;;;5103356;28;20400;-72
2023/12/12 08:30:41;;;;;;;86.22;22.17;;;4.90;99.90;;;;;;5093589;28;20894;-72
2023/12/12 08:33:06;;;;;;;77.32;20.27;;;4.90;99.90;;;;;;5103160;28;20393;-72
2023/12/12 08:35:32;;;;;;;94.67;21.67;;;5.00;99.90;;;;;;5081218;28;20892;-72
2023/12/12 08:37:57;;;;;;;106.95;22.98;;;5.00;99.90;;;;;;5097864;28;20879;-72
2023/12/12 08:40:23;;;;;;;110.80;24.37;;;5.00;99.90;;;;;;5101394;28;20455;-72
2023/12/12 08:42:49;;;;;;;106.53;22.47;;;5.00;99.90;;;;;;5101059;28;20479;-72
2023/12/12 08:45:14;;;;;;;100.68;22.42;;;5.10;99.90;;;;;;5080631;28;20406;-72
2023/12/12 08:47:40;;;;;;;116.13;23.43;;;5.10;99.90;;;;;;5096583;28;21380;-71
2023/12/12 08:50:06;;;;;;;135.18;26.13;;;5.10;99.90;;;;;;5100814;28;21112;-72
2023/12/12 08:52:32;;;;;;;158.27;26.40;;;5.10;99.90;;;;;;5100620;28;20400;-72
2023/12/12 08:54:58;;;;;;;113.13;24.10;;;5.10;99.90;;;;;;5083672;28;20423;-72
2023/12/12 08:57:24;;;;;;;124.55;25.25;;;5.20;99.90;;;;;;5092684;28;20406;-72
2023/12/12 08:59:49;;;;;;;115.22;24.25;;;5.20;99.90;;;;;;5100079;28;20393;-72
2023/12/12 09:02:17;;;;;;;146.50;26.60;;;5.20;99.90;;;;;;5100748;28;20422;-72
2023/12/12 09:04:42;;;;;;;144.82;27.50;;;5.20;99.90;;;;;;5100700;28;20400;-72
2023/12/12 09:07:08;;;;;;;153.17;27.43;;;5.30;99.90;;;;;;5100030;28;20446;-72
2023/12/12 09:09:34;;;;;;;155.83;28.27;;;5.30;99.90;;;;;;5096873;28;20471;-72
2023/12/12 09:12:00;;;;;;;87.28;23.65;;;5.30;99.90;;;;;;5089258;28;20478;-72
2023/12/12 09:14:27;;;;;;;153.47;29.67;;;5.30;99.90;;;;;;5103346;28;20921;-72
2023/12/12 09:16:53;;;;;;;114.43;26.70;;;5.40;99.90;;;;;;5101897;28;20443;-72
2023/12/12 09:19:19;;;;;;;112.67;26.70;;;5.40;99.90;;;;;;5102112;28;20435;-72
2023/12/12 09:21:44;;;;;;;128.35;27.17;;;5.50;99.90;;;;;;5092677;28;20477;-72
2023/12/12 09:24:10;;;;;;;125.97;29.38;;;5.50;99.90;;;;;;5098619;28;20835;-72
2023/12/12 09:26:36;;;;;;;128.77;29.00;;;5.50;99.90;;;;;;5103414;28;20428;-72
2023/12/12 09:29:01;;;;;;;102.05;27.15;;;5.60;99.90;;;;;;5102192;28;20503;-72
2023/12/12 09:31:28;;;;;;;84.38;26.63;;;5.80;99.90;;;;;;5084823;28;20400;-72
2023/12/12 09:33:55;;;;;;;83.00;26.67;;;5.90;99.90;;;;;;5103221;28;20405;-72
2023/12/12 09:36:21;;;;;;;78.40;27.17;;;6.00;99.90;;;;;;5102870;28;20396;-72
2023/12/12 09:38:47;;;;;;;80.25;28.50;;;6.00;99.90;;;;;;5101797;28;20436;-72
2023/12/12 09:41:20;;;;;;;77.55;27.90;;;6.00;99.90;;;;;;5101523;28;20436;-72
2023/12/12 09:43:48;;;;;;;67.82;26.75;;;6.10;99.90;;;;;;5071206;28;20407;-72
2023/12/12 09:46:15;;;;;;;65.55;25.73;;;6.10;99.90;;;;;;5098323;28;20422;-72
2023/12/12 09:48:43;;;;;;;64.47;24.92;;;6.10;99.90;;;;;;5103885;28;20398;-72
2023/12/12 09:51:11;;;;;;;63.00;24.65;;;6.20;99.90;;;;;;5097766;28;20402;-72
2023/12/12 09:53:40;;;;;;;69.03;25.38;;;6.20;99.90;;;;;;5086026;28;20946;-72
2023/12/12 09:56:09;;;;;;;62.97;25.02;;;6.30;99.90;;;;;;5081374;28;20402;-72
2023/12/12 09:58:35;;;;;;;75.38;26.27;;;6.30;99.90;;;;;;5102397;28;20427;-72
2023/12/12 10:01:02;;;;;;;108.07;28.27;;;6.20;99.90;;;;;;5089373;28;20402;-72
2023/12/12 10:03:29;;;;;;;125.63;30.77;;;6.20;99.90;;;;;;5103090;28;20443;-72
2023/12/12 10:06:01;;;;;;;128.02;32.50;;;6.20;99.90;;;;;;5095901;28;20467;-72
2023/12/12 10:08:26;;;;;;;215.52;37.85;;;6.20;99.90;;;;;;5085826;28;20412;-72
2023/12/12 10:10:52;;;;;;;198.13;36.80;;;6.20;99.90;;;;;;5087414;28;20402;-72
2023/12/12 10:13:19;;;;;;;208.15;34.72;;;6.20;99.90;;;;;;5097097;28;20396;-72
2023/12/12 10:15:45;;;;;;;217.73;37.70;;;6.20;99.90;;;;;;5081177;28;20961;-72
2023/12/12 10:18:10;;;;;;;193.82;35.72;;;6.20;99.90;;;;;;5095093;28;20410;-72
2023/12/12 10:20:36;;;;;;;219.40;35.77;;;6.20;99.90;;;;;;5095860;28;20409;-72
2023/12/12 10:23:04;;;;;;;222.40;37.22;;;6.20;99.90;;;;;;5087247;28;21122;-72
2023/12/12 10:25:31;;;;;;;240.50;38.22;;;6.20;99.90;;;;;;5095229;28;20398;-72
2023/12/12 10:27:58;;;;;;;198.02;33.20;;;6.30;99.90;;;;;;5102624;28;20416;-72
2023/12/12 10:30:23;;;;;;;289.67;40.55;;;6.20;99.90;;;;;;5095722;28;20409;-72
2023/12/12 10:32:53;;;;;;;241.53;36.63;;;6.20;99.90;;;;;;5102259;28;20767;-72
2023/12/12 10:35:23;;;;;;;229.35;37.00;;;6.20;99.90;;;;;;5091143;28;20923;-72
2023/12/12 10:37:50;;;;;;;229.82;36.05;;;6.20;99.90;;;;;;5101175;28;20913;-72
2023/12/12 10:40:17;;;;;;;226.25;35.38;;;6.20;99.90;;;;;;5094596;28;20936;-72
2023/12/12 10:42:44;;;;;;;264.92;38.83;;;6.20;99.90;;;;;;5086422;28;21355;-72
2023/12/12 10:45:14;;;;;;;239.30;36.03;;;6.20;99.90;;;;;;5089248;28;20406;-71
2023/12/12 10:47:50;;;;;;;241.93;36.38;;;6.20;99.90;;;;;;5098931;28;20509;-72
2023/12/12 10:50:17;;;;;;;308.25;42.13;;;6.20;99.90;;;;;;5100349;28;20815;-72
2023/12/12 10:52:45;;;;;;;240.60;37.40;;;6.20;99.90;;;;;;5097001;28;20475;-72
2023/12/12 10:55:13;;;;;;;229.02;37.10;;;6.20;99.90;;;;;;5097886;28;20412;-72
2023/12/12 10:57:42;;;;;;;311.02;43.47;;;6.10;99.90;;;;;;5095523;28;20414;-72
2023/12/12 11:00:12;;;;;;;243.43;40.38;;;6.10;99.90;;;;;;5098919;28;20396;-72
2023/12/12 11:02:42;;;;;;;230.40;38.30;;;6.10;99.90;;;;;;5089123;28;20394;-72
2023/12/12 11:05:10;;;;;;;194.57;35.63;;;6.10;99.90;;;;;;5098676;28;20415;-72
2023/12/12 11:07:37;;;;;;;304.63;43.80;;;6.10;99.90;;;;;;5092297;28;20488;-72
2023/12/12 11:10:14;;;;;;;261.57;44.27;;;6.10;99.90;;;;;;5093604;28;20404;-72
2023/12/12 11:12:51;;;;;;;334.63;48.80;;;6.10;99.90;;;;;;5083599;28;20398;-72
2023/12/12 11:15:19;;;;;;;226.35;41.75;;;6.10;99.90;;;;;;5096045;28;20400;-72
2023/12/12 11:17:47;;;;;;;286.73;49.30;;;6.10;99.90;;;;;;5091107;28;20412;-72
2023/12/12 11:20:17;;;;;;;306.63;50.78;;;6.10;99.90;;;;;;5100366;28;20405;-72
2023/12/12 11:22:46;;;;;;;289.67;45.95;;;6.20;99.90;;;;;;5102199;28;20428;-72
2023/12/12 11:25:19;;;;;;;223.98;43.42;;;6.20;99.90;;;;;;5089785;28;20406;-72
2023/12/12 11:27:47;;;;;;;229.95;40.60;;;6.20;99.90;;;;;;5085330;28;20428;-72
2023/12/12 11:30:14;;;;;;;270.10;43.80;;;6.20;99.90;;;;;;5096237;28;20479;-72
2023/12/12 11:32:42;;;;;;;225.85;39.55;;;6.10;99.90;;;;;;5093073;28;20565;-72
2023/12/12 11:35:29;;;;;;;169.95;37.30;;;6.10;99.90;;;;;;5096777;28;20437;-72
2023/12/12 11:37:56;;;;;;;295.30;48.72;;;6.10;99.90;;;;;;5090567;28;20943;-72
2023/12/12 11:40:25;;;;;;;328.17;53.20;;;6.10;99.90;;;;;;5100420;28;20411;-72
2023/12/12 11:42:52;;;;;;;258.02;47.20;;;6.20;99.90;;;;;;5102950;28;20408;-72
2023/12/12 11:45:34;;;;;;;257.47;45.70;;;6.10;99.90;;;;;;5103699;28;20766;-72
2023/12/12 11:48:05;;;;;;;206.10;43.33;;;6.20;99.90;;;;;;5100253;28;20539;-72
2023/12/12 11:50:31;;;;;;;247.18;46.53;;;6.10;99.90;;;;;;5105686;28;20404;-72
2023/12/12 11:52:57;;;;;;;193.02;41.63;;;6.10;99.90;;;;;;5101265;27;20427;-72
2023/12/12 11:55:32;;;;;;;248.80;47.92;;;6.10;99.90;;;;;;5088089;28;20404;-72
2023/12/12 11:58:07;;;;;;;265.95;49.83;;;6.10;99.90;;;;;;5094561;28;20406;-72
2023/12/12 12:00:40;;;;;;;232.98;45.78;;;6.10;99.90;;;;;;5098211;28;20407;-72
2023/12/12 12:03:09;;;;;;;202.68;43.38;;;6.10;99.90;;;;;;5102635;28;20463;-72
2023/12/12 12:05:35;;;;;;;232.10;45.20;;;6.10;99.90;;;;;;5102946;28;20401;-72
2023/12/12 12:08:02;;;;;;;169.40;41.45;;;6.10;99.90;;;;;;5086099;28;20759;-72
2023/12/12 12:10:28;;;;;;;274.00;54.85;;;6.20;99.90;;;;;;5101375;28;20845;-72
2023/12/12 12:12:54;;;;;;;248.37;51.30;;;6.20;99.90;;;;;;5093354;28;20399;-72
2023/12/12 12:15:20;;;;;;;290.95;55.10;;;6.20;99.90;;;;;;5103074;28;20933;-72
2023/12/12 12:17:46;;;;;;;283.58;54.47;;;6.20;99.90;;;;;;5104225;28;20771;-72
2023/12/12 12:20:11;;;;;;;275.90;55.30;;;6.20;99.90;;;;;;5102491;28;20419;-72
2023/12/12 12:22:38;;;;;;;222.73;47.85;;;6.30;99.90;;;;;;5103456;28;20475;-72
2023/12/12 12:25:05;;;;;;;186.15;43.08;;;6.30;99.90;;;;;;5102524;28;20415;-72
2023/12/12 12:27:31;;;;;;;193.03;42.83;;;6.30;99.90;;;;;;5105131;28;20424;-72
2023/12/12 12:30:03;;;;;;;172.50;41.40;;;6.20;99.90;;;;;;5102409;28;20422;-72
2023/12/12 12:32:29;;;;;;;188.47;42.40;;;6.30;99.90;;;;;;5104434;28;20412;-72
2023/12/12 12:35:07;;;;;;;166.80;40.63;;;6.20;99.90;;;;;;5102130;28;20401;-72
2023/12/12 12:37:34;;;;;;;180.88;41.83;;;6.30;99.90;;;;;;5090783;28;20764;-72
2023/12/12 12:40:04;;;;;;;220.05;46.40;;;6.30;99.90;;;;;;5100100;28;20402;-72
2023/12/12 12:42:37;;;;;;;232.27;47.30;;;6.30;99.90;;;;;;5105880;28;20404;-72